sensor_id;sensor_type;location;lat;lon;timestamp;P1;durP1;ratioP1;P2;durP2;ratioP2
16640;SDS011;8434;47.990;7.880;2023-07-29T00:00:29;1.53;;;1.40;;
16640;SDS011;8434;47.990;7.880;2023-07-29T00:03:16;3.50;;;1.40;;
16640;SDS011;8434;47.990;7.880;2023-07-29T00:06:01;5.47;;;1.97;;
16640;SDS011;8434;47.990;7.880;2023-07-29T00:08:47;4.33;;;1.50;;
16640;SDS011;8434;47.990;7.880;2023-07-29T00:11:32;4.23;;;1.47;;
16640;SDS011;8434;47.990;7.880;2023-07-29T00:14:17;4.57;;;1.40;;
16640;SDS011;8434;47.990;7.880;2023-07-29T00:17:03;3.33;;;1.30;;
16640;SDS011;8434;47.990;7.880;2023-07-29T00:19:50;5.90;;;1.40;;
16640;SDS011;8434;47.990;7.880;2023-07-29T00:22:35;2.63;;;1.40;;
16640;SDS011;8434;47.990;7.880;2023-07-29T00:25:21;1.73;;;1.17;;
16640;SDS011;8434;47.990;7.880;2023-07-29T00:28:06;2.43;;;1.50;;
16640;SDS011;8434;47.990;7.880;2023-07-29T00:30:52;6.50;;;1.73;;
16640;SDS011;8434;47.990;7.880;2023-07-29T00:33:38;4.80;;;1.50;;
16640;SDS011;8434;47.990;7.880;2023-07-29T00:36:25;3.40;;;1.20;;
16640;SDS011;8434;47.990;7.880;2023-07-29T00:39:10;3.83;;;1.60;;
16640;SDS011;8434;47.990;7.880;2023-07-29T00:41:55;4.03;;;1.73;;
16640;SDS011;8434;47.990;7.880;2023-07-29T00:44:41;4.50;;;1.20;;
16640;SDS011;8434;47.990;7.880;2023-07-29T00:47:26;3.10;;;1.40;;
16640;SDS011;8434;47.990;7.880;2023-07-29T00:50:12;2.30;;;1.10;;
16640;SDS011;8434;47.990;7.880;2023-07-29T00:52:59;6.50;;;1.33;;
16640;SDS011;8434;47.990;7.880;2023-07-29T00:55:44;2.20;;;1.27;;
16640;SDS011;8434;47.990;7.880;2023-07-29T00:58:30;5.03;;;1.70;;
16640;SDS011;8434;47.990;7.880;2023-07-29T01:01:15;1.87;;;1.40;;
16640;SDS011;8434;47.990;7.880;2023-07-29T01:04:01;1.87;;;1.30;;
16640;SDS011;8434;47.990;7.880;2023-07-29T01:06:50;1.80;;;1.40;;
16640;SDS011;8434;47.990;7.880;2023-07-29T01:09:41;3.50;;;1.33;;
16640;SDS011;8434;47.990;7.880;2023-07-29T01:12:34;2.20;;;1.30;;
16640;SDS011;8434;47.990;7.880;2023-07-29T01:15:28;3.90;;;1.37;;
16640;SDS011;8434;47.990;7.880;2023-07-29T01:18:18;2.40;;;1.40;;
16640;SDS011;8434;47.990;7.880;2023-07-29T01:21:07;4.70;;;1.50;;
16640;SDS011;8434;47.990;7.880;2023-07-29T01:23:54;2.80;;;1.30;;
16640;SDS011;8434;47.990;7.880;2023-07-29T01:26:43;1.50;;;1.23;;
16640;SDS011;8434;47.990;7.880;2023-07-29T01:29:29;1.20;;;1.10;;
16640;SDS011;8434;47.990;7.880;2023-07-29T01:32:14;2.10;;;1.87;;
16640;SDS011;8434;47.990;7.880;2023-07-29T01:35:03;3.30;;;1.60;;
16640;SDS011;8434;47.990;7.880;2023-07-29T01:37:53;2.30;;;1.00;;
16640;SDS011;8434;47.990;7.880;2023-07-29T01:40:41;2.80;;;1.40;;
16640;SDS011;8434;47.990;7.880;2023-07-29T01:43:28;3.40;;;1.13;;
16640;SDS011;8434;47.990;7.880;2023-07-29T01:46:13;3.77;;;1.40;;
16640;SDS011;8434;47.990;7.880;2023-07-29T01:48:59;8.67;;;2.03;;
16640;SDS011;8434;47.990;7.880;2023-07-29T01:51:44;1.43;;;1.23;;
16640;SDS011;8434;47.990;7.880;2023-07-29T01:54:30;4.10;;;1.30;;
16640;SDS011;8434;47.990;7.880;2023-07-29T01:57:17;2.13;;;1.10;;
16640;SDS011;8434;47.990;7.880;2023-07-29T02:00:03;1.83;;;1.20;;
16640;SDS011;8434;47.990;7.880;2023-07-29T02:02:58;3.03;;;1.07;;
16640;SDS011;8434;47.990;7.880;2023-07-29T02:05:43;1.47;;;1.00;;
16640;SDS011;8434;47.990;7.880;2023-07-29T02:08:29;2.87;;;1.10;;
16640;SDS011;8434;47.990;7.880;2023-07-29T02:11:14;1.73;;;1.20;;
16640;SDS011;8434;47.990;7.880;2023-07-29T02:14:01;4.47;;;1.20;;
16640;SDS011;8434;47.990;7.880;2023-07-29T02:16:47;2.17;;;1.10;;
16640;SDS011;8434;47.990;7.880;2023-07-29T02:19:33;3.07;;;1.33;;
16640;SDS011;8434;47.990;7.880;2023-07-29T02:22:18;3.00;;;1.17;;
16640;SDS011;8434;47.990;7.880;2023-07-29T02:25:04;1.30;;;1.20;;
16640;SDS011;8434;47.990;7.880;2023-07-29T02:27:49;2.43;;;1.10;;
16640;SDS011;8434;47.990;7.880;2023-07-29T02:30:41;1.93;;;1.07;;
16640;SDS011;8434;47.990;7.880;2023-07-29T02:33:27;5.63;;;2.00;;
16640;SDS011;8434;47.990;7.880;2023-07-29T02:36:13;1.90;;;1.10;;
16640;SDS011;8434;47.990;7.880;2023-07-29T02:38:59;2.87;;;1.30;;
16640;SDS011;8434;47.990;7.880;2023-07-29T02:41:44;2.10;;;1.30;;
16640;SDS011;8434;47.990;7.880;2023-07-29T02:44:30;1.83;;;1.20;;
16640;SDS011;8434;47.990;7.880;2023-07-29T02:47:17;4.80;;;1.40;;
16640;SDS011;8434;47.990;7.880;2023-07-29T02:50:03;2.23;;;1.03;;
16640;SDS011;8434;47.990;7.880;2023-07-29T02:52:48;2.37;;;1.10;;
16640;SDS011;8434;47.990;7.880;2023-07-29T02:55:34;1.30;;;1.10;;
16640;SDS011;8434;47.990;7.880;2023-07-29T02:58:19;1.20;;;1.10;;
16640;SDS011;8434;47.990;7.880;2023-07-29T03:01:05;2.67;;;1.20;;
16640;SDS011;8434;47.990;7.880;2023-07-29T03:03:52;3.63;;;1.67;;
16640;SDS011;8434;47.990;7.880;2023-07-29T03:06:37;2.83;;;1.27;;
16640;SDS011;8434;47.990;7.880;2023-07-29T03:09:23;1.37;;;1.10;;
16640;SDS011;8434;47.990;7.880;2023-07-29T03:12:08;3.47;;;1.20;;
16640;SDS011;8434;47.990;7.880;2023-07-29T03:14:53;4.83;;;2.17;;
16640;SDS011;8434;47.990;7.880;2023-07-29T03:17:40;2.17;;;1.27;;
16640;SDS011;8434;47.990;7.880;2023-07-29T03:20:27;1.70;;;1.40;;
16640;SDS011;8434;47.990;7.880;2023-07-29T03:23:12;2.83;;;1.37;;
16640;SDS011;8434;47.990;7.880;2023-07-29T03:25:58;3.47;;;1.10;;
16640;SDS011;8434;47.990;7.880;2023-07-29T03:28:44;1.43;;;1.20;;
16640;SDS011;8434;47.990;7.880;2023-07-29T03:31:29;2.50;;;1.50;;
16640;SDS011;8434;47.990;7.880;2023-07-29T03:34:15;2.20;;;1.33;;
16640;SDS011;8434;47.990;7.880;2023-07-29T03:37:04;1.93;;;1.30;;
16640;SDS011;8434;47.990;7.880;2023-07-29T03:39:50;1.73;;;1.40;;
16640;SDS011;8434;47.990;7.880;2023-07-29T03:42:36;4.33;;;1.30;;
16640;SDS011;8434;47.990;7.880;2023-07-29T03:45:21;3.83;;;1.03;;
16640;SDS011;8434;47.990;7.880;2023-07-29T03:48:07;2.47;;;1.20;;
16640;SDS011;8434;47.990;7.880;2023-07-29T03:50:53;12.47;;;2.37;;
16640;SDS011;8434;47.990;7.880;2023-07-29T03:53:40;3.00;;;1.30;;
16640;SDS011;8434;47.990;7.880;2023-07-29T03:56:25;2.77;;;1.50;;
16640;SDS011;8434;47.990;7.880;2023-07-29T03:59:11;8.67;;;1.90;;
16640;SDS011;8434;47.990;7.880;2023-07-29T04:01:57;2.73;;;1.23;;
16640;SDS011;8434;47.990;7.880;2023-07-29T04:04:43;2.33;;;1.20;;
16640;SDS011;8434;47.990;7.880;2023-07-29T04:07:31;3.27;;;1.60;;
16640;SDS011;8434;47.990;7.880;2023-07-29T04:10:20;5.20;;;1.53;;
16640;SDS011;8434;47.990;7.880;2023-07-29T04:13:06;2.87;;;1.57;;
16640;SDS011;8434;47.990;7.880;2023-07-29T04:15:51;3.33;;;1.70;;
16640;SDS011;8434;47.990;7.880;2023-07-29T04:18:37;1.93;;;1.30;;
16640;SDS011;8434;47.990;7.880;2023-07-29T04:21:23;4.77;;;1.50;;
16640;SDS011;8434;47.990;7.880;2023-07-29T04:24:08;3.73;;;1.50;;
16640;SDS011;8434;47.990;7.880;2023-07-29T04:26:55;4.43;;;1.67;;
16640;SDS011;8434;47.990;7.880;2023-07-29T04:29:40;2.23;;;1.53;;
16640;SDS011;8434;47.990;7.880;2023-07-29T04:32:25;2.40;;;1.57;;
16640;SDS011;8434;47.990;7.880;2023-07-29T04:35:11;1.40;;;1.30;;
16640;SDS011;8434;47.990;7.880;2023-07-29T04:37:56;3.70;;;1.80;;
16640;SDS011;8434;47.990;7.880;2023-07-29T04:40:42;2.27;;;1.67;;
16640;SDS011;8434;47.990;7.880;2023-07-29T04:43:30;3.03;;;1.80;;
16640;SDS011;8434;47.990;7.880;2023-07-29T04:46:16;2.47;;;1.73;;
16640;SDS011;8434;47.990;7.880;2023-07-29T04:49:01;3.70;;;1.63;;
16640;SDS011;8434;47.990;7.880;2023-07-29T04:51:47;3.80;;;1.60;;
16640;SDS011;8434;47.990;7.880;2023-07-29T04:54:32;4.50;;;1.60;;
16640;SDS011;8434;47.990;7.880;2023-07-29T04:57:18;2.83;;;1.40;;
16640;SDS011;8434;47.990;7.880;2023-07-29T05:00:05;2.13;;;1.70;;
16640;SDS011;8434;47.990;7.880;2023-07-29T05:02:50;2.03;;;1.83;;
16640;SDS011;8434;47.990;7.880;2023-07-29T05:05:35;1.87;;;1.37;;
16640;SDS011;8434;47.990;7.880;2023-07-29T05:08:21;3.13;;;1.80;;
16640;SDS011;8434;47.990;7.880;2023-07-29T05:11:07;2.67;;;1.50;;
16640;SDS011;8434;47.990;7.880;2023-07-29T05:13:52;2.50;;;1.97;;
16640;SDS011;8434;47.990;7.880;2023-07-29T05:16:39;2.10;;;1.60;;
16640;SDS011;8434;47.990;7.880;2023-07-29T05:19:24;2.87;;;1.50;;
16640;SDS011;8434;47.990;7.880;2023-07-29T05:22:10;3.83;;;1.63;;
16640;SDS011;8434;47.990;7.880;2023-07-29T05:24:55;4.17;;;1.50;;
16640;SDS011;8434;47.990;7.880;2023-07-29T05:27:41;2.80;;;1.67;;
16640;SDS011;8434;47.990;7.880;2023-07-29T05:30:26;4.13;;;1.70;;
16640;SDS011;8434;47.990;7.880;2023-07-29T05:33:16;3.13;;;1.63;;
16640;SDS011;8434;47.990;7.880;2023-07-29T05:36:01;3.37;;;1.60;;
16640;SDS011;8434;47.990;7.880;2023-07-29T05:38:46;3.47;;;1.93;;
16640;SDS011;8434;47.990;7.880;2023-07-29T05:41:32;2.63;;;1.80;;
16640;SDS011;8434;47.990;7.880;2023-07-29T05:44:17;3.73;;;1.67;;
16640;SDS011;8434;47.990;7.880;2023-07-29T05:47:03;4.10;;;1.80;;
16640;SDS011;8434;47.990;7.880;2023-07-29T05:49:51;3.47;;;1.70;;
16640;SDS011;8434;47.990;7.880;2023-07-29T05:52:37;2.23;;;1.80;;
16640;SDS011;8434;47.990;7.880;2023-07-29T05:55:22;2.53;;;1.70;;
16640;SDS011;8434;47.990;7.880;2023-07-29T05:58:08;3.23;;;2.10;;
16640;SDS011;8434;47.990;7.880;2023-07-29T06:00:53;4.10;;;2.03;;
16640;SDS011;8434;47.990;7.880;2023-07-29T06:03:39;3.80;;;2.40;;
16640;SDS011;8434;47.990;7.880;2023-07-29T06:06:26;3.13;;;2.00;;
16640;SDS011;8434;47.990;7.880;2023-07-29T06:09:11;2.67;;;2.37;;
16640;SDS011;8434;47.990;7.880;2023-07-29T06:11:57;5.67;;;2.70;;
16640;SDS011;8434;47.990;7.880;2023-07-29T06:14:42;2.63;;;2.10;;
16640;SDS011;8434;47.990;7.880;2023-07-29T06:17:28;1.65;;;1.55;;
16640;SDS011;8434;47.990;7.880;2023-07-29T06:20:13;2.55;;;1.83;;
16640;SDS011;8434;47.990;7.880;2023-07-29T06:23:00;2.30;;;2.10;;
16640;SDS011;8434;47.990;7.880;2023-07-29T06:25:46;1.95;;;1.60;;
16640;SDS011;8434;47.990;7.880;2023-07-29T06:28:31;3.97;;;1.98;;
16640;SDS011;8434;47.990;7.880;2023-07-29T06:31:17;1.60;;;1.17;;
16640;SDS011;8434;47.990;7.880;2023-07-29T06:34:02;1.85;;;1.52;;
16640;SDS011;8434;47.990;7.880;2023-07-29T06:36:48;3.30;;;1.98;;
16640;SDS011;8434;47.990;7.880;2023-07-29T06:39:34;1.92;;;1.60;;
16640;SDS011;8434;47.990;7.880;2023-07-29T06:42:20;1.60;;;1.48;;
16640;SDS011;8434;47.990;7.880;2023-07-29T06:45:06;4.82;;;2.10;;
16640;SDS011;8434;47.990;7.880;2023-07-29T06:47:51;5.78;;;2.60;;
16640;SDS011;8434;47.990;7.880;2023-07-29T06:50:36;4.13;;;2.15;;
16640;SDS011;8434;47.990;7.880;2023-07-29T06:53:22;4.97;;;2.20;;
16640;SDS011;8434;47.990;7.880;2023-07-29T06:56:10;3.65;;;2.42;;
16640;SDS011;8434;47.990;7.880;2023-07-29T06:58:56;2.17;;;1.90;;
16640;SDS011;8434;47.990;7.880;2023-07-29T07:01:41;3.50;;;1.93;;
16640;SDS011;8434;47.990;7.880;2023-07-29T07:04:27;1.80;;;1.63;;
16640;SDS011;8434;47.990;7.880;2023-07-29T07:07:12;1.83;;;1.70;;
16640;SDS011;8434;47.990;7.880;2023-07-29T07:09:58;3.50;;;1.83;;
16640;SDS011;8434;47.990;7.880;2023-07-29T07:12:45;2.10;;;1.40;;
16640;SDS011;8434;47.990;7.880;2023-07-29T07:15:31;1.90;;;1.80;;
16640;SDS011;8434;47.990;7.880;2023-07-29T07:18:16;2.78;;;1.52;;
16640;SDS011;8434;47.990;7.880;2023-07-29T07:21:02;2.75;;;1.98;;
16640;SDS011;8434;47.990;7.880;2023-07-29T07:23:49;2.63;;;1.80;;
16640;SDS011;8434;47.990;7.880;2023-07-29T07:26:34;2.10;;;1.60;;
16640;SDS011;8434;47.990;7.880;2023-07-29T07:29:21;1.95;;;1.67;;
16640;SDS011;8434;47.990;7.880;2023-07-29T07:32:06;3.72;;;1.67;;
16640;SDS011;8434;47.990;7.880;2023-07-29T07:34:52;5.68;;;1.95;;
16640;SDS011;8434;47.990;7.880;2023-07-29T07:37:37;2.67;;;1.52;;
16640;SDS011;8434;47.990;7.880;2023-07-29T07:40:22;2.67;;;1.60;;
16640;SDS011;8434;47.990;7.880;2023-07-29T07:43:08;3.03;;;1.80;;
16640;SDS011;8434;47.990;7.880;2023-07-29T07:45:58;2.25;;;1.52;;
16640;SDS011;8434;47.990;7.880;2023-07-29T07:48:44;2.38;;;1.40;;
16640;SDS011;8434;47.990;7.880;2023-07-29T07:51:29;2.45;;;1.60;;
16640;SDS011;8434;47.990;7.880;2023-07-29T07:54:15;2.58;;;1.42;;
16640;SDS011;8434;47.990;7.880;2023-07-29T07:57:00;1.50;;;1.40;;
16640;SDS011;8434;47.990;7.880;2023-07-29T07:59:45;1.58;;;1.30;;
16640;SDS011;8434;47.990;7.880;2023-07-29T08:02:32;1.48;;;1.38;;
16640;SDS011;8434;47.990;7.880;2023-07-29T08:05:18;1.80;;;1.70;;
16640;SDS011;8434;47.990;7.880;2023-07-29T08:08:03;1.85;;;1.60;;
16640;SDS011;8434;47.990;7.880;2023-07-29T08:10:49;2.40;;;1.67;;
16640;SDS011;8434;47.990;7.880;2023-07-29T08:13:34;1.63;;;1.52;;
16640;SDS011;8434;47.990;7.880;2023-07-29T08:16:19;2.15;;;1.90;;
16640;SDS011;8434;47.990;7.880;2023-07-29T08:19:06;1.63;;;1.52;;
16640;SDS011;8434;47.990;7.880;2023-07-29T08:21:53;2.20;;;1.45;;
16640;SDS011;8434;47.990;7.880;2023-07-29T08:24:39;1.92;;;1.52;;
16640;SDS011;8434;47.990;7.880;2023-07-29T08:27:24;2.17;;;1.73;;
16640;SDS011;8434;47.990;7.880;2023-07-29T08:30:10;2.20;;;1.60;;
16640;SDS011;8434;47.990;7.880;2023-07-29T08:32:55;1.73;;;1.63;;
16640;SDS011;8434;47.990;7.880;2023-07-29T08:35:42;2.10;;;1.90;;
16640;SDS011;8434;47.990;7.880;2023-07-29T08:38:27;2.05;;;1.70;;
16640;SDS011;8434;47.990;7.880;2023-07-29T08:41:13;2.28;;;1.75;;
16640;SDS011;8434;47.990;7.880;2023-07-29T08:44:01;1.88;;;1.60;;
16640;SDS011;8434;47.990;7.880;2023-07-29T08:46:47;2.47;;;1.80;;
16640;SDS011;8434;47.990;7.880;2023-07-29T08:49:32;2.85;;;1.75;;
16640;SDS011;8434;47.990;7.880;2023-07-29T08:52:21;2.70;;;2.00;;
16640;SDS011;8434;47.990;7.880;2023-07-29T08:55:07;2.15;;;1.58;;
16640;SDS011;8434;47.990;7.880;2023-07-29T08:57:53;1.50;;;1.40;;
16640;SDS011;8434;47.990;7.880;2023-07-29T09:00:38;3.28;;;1.45;;
16640;SDS011;8434;47.990;7.880;2023-07-29T09:03:24;2.13;;;1.88;;
16640;SDS011;8434;47.990;7.880;2023-07-29T09:06:09;1.90;;;1.35;;
16640;SDS011;8434;47.990;7.880;2023-07-29T09:08:58;1.63;;;1.52;;
16640;SDS011;8434;47.990;7.880;2023-07-29T09:11:43;2.30;;;1.70;;
16640;SDS011;8434;47.990;7.880;2023-07-29T09:14:29;2.67;;;1.73;;
16640;SDS011;8434;47.990;7.880;2023-07-29T09:17:14;2.83;;;1.90;;
16640;SDS011;8434;47.990;7.880;2023-07-29T09:20:00;2.10;;;1.65;;
16640;SDS011;8434;47.990;7.880;2023-07-29T09:22:45;2.35;;;2.15;;
16640;SDS011;8434;47.990;7.880;2023-07-29T09:25:32;2.42;;;2.20;;
16640;SDS011;8434;47.990;7.880;2023-07-29T09:28:17;3.38;;;1.83;;
16640;SDS011;8434;47.990;7.880;2023-07-29T09:31:03;2.15;;;1.95;;
16640;SDS011;8434;47.990;7.880;2023-07-29T09:33:48;2.50;;;1.73;;
16640;SDS011;8434;47.990;7.880;2023-07-29T09:36:33;3.40;;;1.83;;
16640;SDS011;8434;47.990;7.880;2023-07-29T09:39:20;2.90;;;2.22;;
16640;SDS011;8434;47.990;7.880;2023-07-29T09:42:10;2.00;;;1.80;;
16640;SDS011;8434;47.990;7.880;2023-07-29T09:44:56;2.20;;;2.00;;
16640;SDS011;8434;47.990;7.880;2023-07-29T09:47:42;2.10;;;1.90;;
16640;SDS011;8434;47.990;7.880;2023-07-29T09:50:31;2.67;;;2.15;;
16640;SDS011;8434;47.990;7.880;2023-07-29T09:53:16;3.00;;;1.80;;
16640;SDS011;8434;47.990;7.880;2023-07-29T09:56:02;2.13;;;1.92;;
16640;SDS011;8434;47.990;7.880;2023-07-29T09:58:49;2.42;;;1.73;;
16640;SDS011;8434;47.990;7.880;2023-07-29T10:01:34;2.20;;;2.00;;
16640;SDS011;8434;47.990;7.880;2023-07-29T10:04:21;3.45;;;2.15;;
16640;SDS011;8434;47.990;7.880;2023-07-29T10:07:06;2.35;;;1.85;;
16640;SDS011;8434;47.990;7.880;2023-07-29T10:09:52;3.25;;;2.20;;
16640;SDS011;8434;47.990;7.880;2023-07-29T10:12:39;3.15;;;2.08;;
16640;SDS011;8434;47.990;7.880;2023-07-29T10:15:27;2.33;;;2.13;;
16640;SDS011;8434;47.990;7.880;2023-07-29T10:18:14;2.10;;;1.90;;
16640;SDS011;8434;47.990;7.880;2023-07-29T10:21:00;4.20;;;2.28;;
16640;SDS011;8434;47.990;7.880;2023-07-29T10:23:46;2.55;;;2.20;;
16640;SDS011;8434;47.990;7.880;2023-07-29T10:26:33;2.25;;;2.05;;
16640;SDS011;8434;47.990;7.880;2023-07-29T10:29:21;3.75;;;2.20;;
16640;SDS011;8434;47.990;7.880;2023-07-29T10:32:09;2.92;;;2.65;;
16640;SDS011;8434;47.990;7.880;2023-07-29T10:34:56;3.35;;;2.28;;
16640;SDS011;8434;47.990;7.880;2023-07-29T10:37:42;3.55;;;2.17;;
16640;SDS011;8434;47.990;7.880;2023-07-29T10:40:30;3.33;;;3.03;;
16640;SDS011;8434;47.990;7.880;2023-07-29T10:43:31;2.30;;;2.05;;
16640;SDS011;8434;47.990;7.880;2023-07-29T10:46:17;2.25;;;2.05;;
16640;SDS011;8434;47.990;7.880;2023-07-29T10:49:09;2.15;;;1.98;;
16640;SDS011;8434;47.990;7.880;2023-07-29T10:52:00;2.40;;;2.17;;
16640;SDS011;8434;47.990;7.880;2023-07-29T10:54:47;2.42;;;2.17;;
16640;SDS011;8434;47.990;7.880;2023-07-29T10:57:33;1.92;;;1.83;;
16640;SDS011;8434;47.990;7.880;2023-07-29T11:00:19;2.20;;;1.98;;
16640;SDS011;8434;47.990;7.880;2023-07-29T11:03:05;2.13;;;1.80;;
16640;SDS011;8434;47.990;7.880;2023-07-29T11:05:53;2.10;;;1.90;;
16640;SDS011;8434;47.990;7.880;2023-07-29T11:08:38;3.38;;;2.08;;
16640;SDS011;8434;47.990;7.880;2023-07-29T11:11:24;4.82;;;2.22;;
16640;SDS011;8434;47.990;7.880;2023-07-29T11:14:09;2.05;;;1.95;;
16640;SDS011;8434;47.990;7.880;2023-07-29T11:16:55;3.17;;;2.10;;
16640;SDS011;8434;47.990;7.880;2023-07-29T11:19:41;1.92;;;1.80;;
16640;SDS011;8434;47.990;7.880;2023-07-29T11:22:28;2.60;;;2.10;;
16640;SDS011;8434;47.990;7.880;2023-07-29T11:25:14;2.47;;;1.75;;
16640;SDS011;8434;47.990;7.880;2023-07-29T11:28:00;2.33;;;1.77;;
16640;SDS011;8434;47.990;7.880;2023-07-29T11:30:46;1.73;;;1.63;;
16640;SDS011;8434;47.990;7.880;2023-07-29T11:33:31;4.50;;;1.83;;
16640;SDS011;8434;47.990;7.880;2023-07-29T11:36:17;2.20;;;1.63;;
16640;SDS011;8434;47.990;7.880;2023-07-29T11:39:10;2.55;;;1.50;;
16640;SDS011;8434;47.990;7.880;2023-07-29T11:41:55;2.05;;;1.70;;
16640;SDS011;8434;47.990;7.880;2023-07-29T11:44:41;2.25;;;1.77;;
16640;SDS011;8434;47.990;7.880;2023-07-29T11:47:26;2.05;;;1.83;;
16640;SDS011;8434;47.990;7.880;2023-07-29T11:50:12;1.85;;;1.70;;
16640;SDS011;8434;47.990;7.880;2023-07-29T11:52:58;2.45;;;1.77;;
16640;SDS011;8434;47.990;7.880;2023-07-29T11:55:45;1.83;;;1.70;;
16640;SDS011;8434;47.990;7.880;2023-07-29T11:58:34;2.85;;;1.75;;
16640;SDS011;8434;47.990;7.880;2023-07-29T12:01:22;2.00;;;1.60;;
16640;SDS011;8434;47.990;7.880;2023-07-29T12:04:07;1.90;;;1.80;;
16640;SDS011;8434;47.990;7.880;2023-07-29T12:06:53;1.75;;;1.60;;
16640;SDS011;8434;47.990;7.880;2023-07-29T12:09:38;3.20;;;1.80;;
16640;SDS011;8434;47.990;7.880;2023-07-29T12:12:26;2.45;;;1.70;;
16640;SDS011;8434;47.990;7.880;2023-07-29T12:15:11;2.08;;;1.52;;
16640;SDS011;8434;47.990;7.880;2023-07-29T12:17:57;1.95;;;1.50;;
16640;SDS011;8434;47.990;7.880;2023-07-29T12:20:43;1.70;;;1.60;;
16640;SDS011;8434;47.990;7.880;2023-07-29T12:23:28;2.03;;;1.83;;
16640;SDS011;8434;47.990;7.880;2023-07-29T12:26:14;2.70;;;1.88;;
16640;SDS011;8434;47.990;7.880;2023-07-29T12:29:10;3.58;;;2.10;;
16640;SDS011;8434;47.990;7.880;2023-07-29T12:31:59;2.42;;;2.00;;
16640;SDS011;8434;47.990;7.880;2023-07-29T12:34:44;2.20;;;1.90;;
16640;SDS011;8434;47.990;7.880;2023-07-29T12:37:33;2.15;;;1.92;;
16640;SDS011;8434;47.990;7.880;2023-07-29T12:40:22;2.55;;;2.10;;
16640;SDS011;8434;47.990;7.880;2023-07-29T12:43:07;5.95;;;2.08;;
16640;SDS011;8434;47.990;7.880;2023-07-29T12:45:54;4.13;;;2.20;;
16640;SDS011;8434;47.990;7.880;2023-07-29T12:48:39;2.70;;;1.98;;
16640;SDS011;8434;47.990;7.880;2023-07-29T12:51:25;2.58;;;1.50;;
16640;SDS011;8434;47.990;7.880;2023-07-29T12:54:11;2.90;;;1.70;;
16640;SDS011;8434;47.990;7.880;2023-07-29T12:56:56;3.35;;;2.00;;
16640;SDS011;8434;47.990;7.880;2023-07-29T12:59:42;1.65;;;1.55;;
16640;SDS011;8434;47.990;7.880;2023-07-29T13:02:29;2.83;;;1.70;;
16640;SDS011;8434;47.990;7.880;2023-07-29T13:05:14;4.63;;;1.92;;
16640;SDS011;8434;47.990;7.880;2023-07-29T13:08:00;3.78;;;2.08;;
16640;SDS011;8434;47.990;7.880;2023-07-29T13:10:45;2.72;;;2.35;;
16640;SDS011;8434;47.990;7.880;2023-07-29T13:13:31;1.80;;;1.50;;
16640;SDS011;8434;47.990;7.880;2023-07-29T13:16:17;1.70;;;1.60;;
16640;SDS011;8434;47.990;7.880;2023-07-29T13:19:06;2.72;;;1.67;;
16640;SDS011;8434;47.990;7.880;2023-07-29T13:21:52;2.45;;;1.98;;
16640;SDS011;8434;47.990;7.880;2023-07-29T13:24:37;2.72;;;1.92;;
16640;SDS011;8434;47.990;7.880;2023-07-29T13:27:22;2.15;;;1.95;;
16640;SDS011;8434;47.990;7.880;2023-07-29T13:30:09;2.20;;;1.92;;
16640;SDS011;8434;47.990;7.880;2023-07-29T13:32:55;2.10;;;1.90;;
16640;SDS011;8434;47.990;7.880;2023-07-29T13:35:41;2.15;;;1.83;;
16640;SDS011;8434;47.990;7.880;2023-07-29T13:38:27;2.05;;;1.67;;
16640;SDS011;8434;47.990;7.880;2023-07-29T13:41:12;2.08;;;1.80;;
16640;SDS011;8434;47.990;7.880;2023-07-29T13:43:58;2.10;;;1.80;;
16640;SDS011;8434;47.990;7.880;2023-07-29T13:46:43;2.53;;;2.03;;
16640;SDS011;8434;47.990;7.880;2023-07-29T13:49:29;2.92;;;2.17;;
16640;SDS011;8434;47.990;7.880;2023-07-29T13:52:16;4.82;;;1.98;;
16640;SDS011;8434;47.990;7.880;2023-07-29T13:55:01;2.15;;;1.92;;
16640;SDS011;8434;47.990;7.880;2023-07-29T13:57:47;1.92;;;1.73;;
16640;SDS011;8434;47.990;7.880;2023-07-29T14:00:32;2.60;;;2.03;;
16640;SDS011;8434;47.990;7.880;2023-07-29T14:03:17;2.17;;;1.80;;
16640;SDS011;8434;47.990;7.880;2023-07-29T14:06:03;3.05;;;2.13;;
16640;SDS011;8434;47.990;7.880;2023-07-29T14:08:50;2.50;;;2.10;;
16640;SDS011;8434;47.990;7.880;2023-07-29T14:11:35;2.70;;;1.90;;
16640;SDS011;8434;47.990;7.880;2023-07-29T14:14:21;1.60;;;1.50;;
16640;SDS011;8434;47.990;7.880;2023-07-29T14:17:06;2.42;;;2.22;;
16640;SDS011;8434;47.990;7.880;2023-07-29T14:19:52;2.30;;;2.10;;
16640;SDS011;8434;47.990;7.880;2023-07-29T14:22:38;4.40;;;1.85;;
16640;SDS011;8434;47.990;7.880;2023-07-29T14:25:24;2.65;;;1.90;;
16640;SDS011;8434;47.990;7.880;2023-07-29T14:28:10;2.53;;;1.90;;
16640;SDS011;8434;47.990;7.880;2023-07-29T14:30:55;5.93;;;2.30;;
16640;SDS011;8434;47.990;7.880;2023-07-29T14:33:40;6.10;;;2.65;;
16640;SDS011;8434;47.990;7.880;2023-07-29T14:36:26;9.15;;;3.08;;
16640;SDS011;8434;47.990;7.880;2023-07-29T14:39:11;3.65;;;2.53;;
16640;SDS011;8434;47.990;7.880;2023-07-29T14:41:58;5.60;;;2.72;;
16640;SDS011;8434;47.990;7.880;2023-07-29T14:44:44;4.15;;;2.95;;
16640;SDS011;8434;47.990;7.880;2023-07-29T14:47:29;3.10;;;2.53;;
16640;SDS011;8434;47.990;7.880;2023-07-29T14:50:18;3.78;;;2.70;;
16640;SDS011;8434;47.990;7.880;2023-07-29T14:53:04;4.43;;;3.03;;
16640;SDS011;8434;47.990;7.880;2023-07-29T14:55:49;3.38;;;2.90;;
16640;SDS011;8434;47.990;7.880;2023-07-29T14:58:36;4.30;;;2.60;;
16640;SDS011;8434;47.990;7.880;2023-07-29T15:01:21;3.60;;;2.60;;
16640;SDS011;8434;47.990;7.880;2023-07-29T15:04:07;6.55;;;4.32;;
16640;SDS011;8434;47.990;7.880;2023-07-29T15:06:52;3.17;;;2.88;;
16640;SDS011;8434;47.990;7.880;2023-07-29T15:09:38;4.40;;;2.88;;
16640;SDS011;8434;47.990;7.880;2023-07-29T15:12:23;4.32;;;2.90;;
16640;SDS011;8434;47.990;7.880;2023-07-29T15:15:10;3.13;;;2.83;;
16640;SDS011;8434;47.990;7.880;2023-07-29T15:17:56;3.97;;;2.42;;
16640;SDS011;8434;47.990;7.880;2023-07-29T15:20:42;3.22;;;2.92;;
16640;SDS011;8434;47.990;7.880;2023-07-29T15:23:27;4.80;;;2.85;;
16640;SDS011;8434;47.990;7.880;2023-07-29T15:26:12;2.80;;;2.35;;
16640;SDS011;8434;47.990;7.880;2023-07-29T15:28:58;2.30;;;2.10;;
16640;SDS011;8434;47.990;7.880;2023-07-29T15:31:45;3.47;;;2.28;;
16640;SDS011;8434;47.990;7.880;2023-07-29T15:34:31;2.40;;;2.20;;
16640;SDS011;8434;47.990;7.880;2023-07-29T15:37:17;2.40;;;2.20;;
16640;SDS011;8434;47.990;7.880;2023-07-29T15:40:02;3.33;;;2.65;;
16640;SDS011;8434;47.990;7.880;2023-07-29T15:42:48;2.53;;;2.30;;
16640;SDS011;8434;47.990;7.880;2023-07-29T15:45:35;3.22;;;2.30;;
16640;SDS011;8434;47.990;7.880;2023-07-29T15:48:28;3.45;;;2.47;;
16640;SDS011;8434;47.990;7.880;2023-07-29T15:51:14;3.97;;;2.53;;
16640;SDS011;8434;47.990;7.880;2023-07-29T15:53:59;3.08;;;2.58;;
16640;SDS011;8434;47.990;7.880;2023-07-29T15:56:45;3.78;;;2.85;;
16640;SDS011;8434;47.990;7.880;2023-07-29T15:59:30;2.75;;;2.47;;
16640;SDS011;8434;47.990;7.880;2023-07-29T16:02:20;3.17;;;2.53;;
16640;SDS011;8434;47.990;7.880;2023-07-29T16:05:07;2.72;;;2.50;;
16640;SDS011;8434;47.990;7.880;2023-07-29T16:07:53;3.00;;;2.70;;
16640;SDS011;8434;47.990;7.880;2023-07-29T16:10:40;3.00;;;2.47;;
16640;SDS011;8434;47.990;7.880;2023-07-29T16:13:25;3.40;;;2.50;;
16640;SDS011;8434;47.990;7.880;2023-07-29T16:16:11;2.70;;;2.50;;
16640;SDS011;8434;47.990;7.880;2023-07-29T16:18:56;4.35;;;2.60;;
16640;SDS011;8434;47.990;7.880;2023-07-29T16:21:43;4.07;;;2.92;;
16640;SDS011;8434;47.990;7.880;2023-07-29T16:24:29;3.00;;;2.70;;
16640;SDS011;8434;47.990;7.880;2023-07-29T16:27:14;3.38;;;2.72;;
16640;SDS011;8434;47.990;7.880;2023-07-29T16:30:00;4.63;;;3.28;;
16640;SDS011;8434;47.990;7.880;2023-07-29T16:32:46;3.08;;;2.78;;
16640;SDS011;8434;47.990;7.880;2023-07-29T16:35:32;3.70;;;3.40;;
16640;SDS011;8434;47.990;7.880;2023-07-29T16:38:21;4.10;;;3.08;;
16640;SDS011;8434;47.990;7.880;2023-07-29T16:41:06;4.82;;;2.88;;
16640;SDS011;8434;47.990;7.880;2023-07-29T16:43:51;3.28;;;2.90;;
16640;SDS011;8434;47.990;7.880;2023-07-29T16:46:37;4.30;;;3.88;;
16640;SDS011;8434;47.990;7.880;2023-07-29T16:49:22;4.25;;;3.58;;
16640;SDS011;8434;47.990;7.880;2023-07-29T16:52:08;7.93;;;7.25;;
16640;SDS011;8434;47.990;7.880;2023-07-29T16:54:55;9.15;;;8.25;;